Time;durP1;ratioP1;P1;durP2;ratioP2;P2;SDS_P1;SDS_P2;PMS_P1;PMS_P2;Temp;Humidity;BMP_temperature;BMP_pressure;BME280_temperature;BME280_humidity;BME280_pressure;Samples;Min_cycle;Max_cycle;Signal;HPM_P1;HPM_P2
2023/10/11 00:00:48;;;;;;;10.13;2.95;;;17.00;99.90;;;;;;4957359;28;20134;-71
2023/10/11 00:03:33;;;;;;;8.07;2.38;;;17.10;99.90;;;;;;4958708;28;20121;-71
2023/10/11 00:06:00;;;;;;;8.27;2.60;;;17.00;99.90;;;;;;4939168;29;20364;-71
2023/10/11 00:08:26;;;;;;;6.47;2.08;;;17.00;99.90;;;;;;4959402;28;20505;-70
2023/10/11 00:10:58;;;;;;;5.13;1.98;;;17.00;99.90;;;;;;4954258;28;20035;-70
2023/10/11 00:13:32;;;;;;;6.75;2.67;;;17.00;99.90;;;;;;4958317;28;20039;-71
2023/10/11 00:16:07;;;;;;;10.05;2.78;;;16.90;99.90;;;;;;4937513;29;20046;-71
2023/10/11 00:18:38;;;;;;;6.35;2.80;;;16.90;99.90;;;;;;4958592;28;20062;-71
2023/10/11 00:21:15;;;;;;;29.30;2.92;;;16.90;99.90;;;;;;4937307;29;20376;-71
2023/10/11 00:23:48;;;;;;;7.93;2.95;;;16.90;99.90;;;;;;4958543;29;20038;-71
2023/10/11 00:26:17;;;;;;;5.45;2.15;;;16.90;99.90;;;;;;4952383;29;20537;-70
2023/10/11 00:28:43;;;;;;;9.00;2.83;;;16.80;99.90;;;;;;4958313;28;20086;-70
2023/10/11 00:31:17;;;;;;;8.20;2.28;;;16.80;99.90;;;;;;4950460;28;20031;-71
2023/10/11 00:33:43;;;;;;;7.22;2.55;;;16.70;99.90;;;;;;4955189;28;20522;-71
2023/10/11 00:36:08;;;;;;;8.90;2.38;;;16.80;99.90;;;;;;4950909;28;20051;-70
2023/10/11 00:38:47;;;;;;;8.45;2.55;;;16.80;99.90;;;;;;4939245;29;20049;-70
2023/10/11 00:41:20;;;;;;;4.85;2.22;;;16.70;99.90;;;;;;4955300;28;20045;-71
2023/10/11 00:43:55;;;;;;;8.23;2.63;;;16.70;99.90;;;;;;4955549;29;20078;-70
2023/10/11 00:46:36;;;;;;;6.38;2.58;;;16.60;99.90;;;;;;4950360;28;20039;-70
2023/10/11 00:49:12;;;;;;;7.38;2.67;;;16.60;99.90;;;;;;4954641;28;20023;-70
2023/10/11 00:51:41;;;;;;;6.63;2.55;;;16.60;99.90;;;;;;4935292;29;20035;-70
2023/10/11 00:54:07;;;;;;;8.45;3.30;;;16.50;99.90;;;;;;4956217;28;20391;-70
2023/10/11 00:56:33;;;;;;;5.97;2.85;;;16.50;99.90;;;;;;4948864;29;20102;-70
2023/10/11 00:59:14;;;;;;;7.95;2.35;;;16.50;99.90;;;;;;4938774;29;20046;-70
2023/10/11 01:01:44;;;;;;;9.85;2.92;;;16.40;99.90;;;;;;4954183;29;20046;-70
2023/10/11 01:04:10;;;;;;;6.90;2.42;;;16.40;99.90;;;;;;4953118;29;20977;-69
2023/10/11 01:06:36;;;;;;;6.53;2.40;;;16.40;99.90;;;;;;4931055;29;20039;-69
2023/10/11 01:09:17;;;;;;;8.93;3.13;;;16.40;99.90;;;;;;4951712;29;20027;-69
2023/10/11 01:11:45;;;;;;;16.77;3.28;;;16.30;99.90;;;;;;4936901;29;20065;-70
2023/10/11 01:14:11;;;;;;;8.50;2.58;;;16.30;99.90;;;;;;4952872;29;20027;-70
2023/10/11 01:16:37;;;;;;;13.52;2.75;;;16.30;99.90;;;;;;4953823;29;20058;-69
2023/10/11 01:19:11;;;;;;;7.63;2.78;;;16.20;99.90;;;;;;4953776;28;20031;-69
2023/10/11 01:21:38;;;;;;;6.90;2.25;;;16.20;99.90;;;;;;4953660;29;20542;-69
2023/10/11 01:24:08;;;;;;;9.30;2.63;;;16.20;99.90;;;;;;4955546;28;20074;-69
2023/10/11 01:26:35;;;;;;;6.80;3.55;;;16.10;99.90;;;;;;4949430;28;20479;-69
2023/10/11 01:29:01;;;;;;;7.32;3.05;;;16.00;99.90;;;;;;4945270;28;20087;-70
2023/10/11 01:31:33;;;;;;;6.22;1.85;;;16.00;99.90;;;;;;4953879;28;20027;-69
2023/10/11 01:33:59;;;;;;;7.28;2.78;;;16.00;99.90;;;;;;4932315;29;20126;-69
2023/10/11 01:36:26;;;;;;;9.07;2.80;;;15.90;99.90;;;;;;4955470;29;20495;-69
2023/10/11 01:38:52;;;;;;;7.50;2.72;;;15.90;99.90;;;;;;4949706;28;20471;-70
2023/10/11 01:41:27;;;;;;;7.28;2.10;;;15.90;99.90;;;;;;4953495;28;20486;-70
2023/10/11 01:43:56;;;;;;;5.07;2.17;;;15.80;99.90;;;;;;4953027;28;20031;-70
2023/10/11 01:46:26;;;;;;;5.97;3.22;;;15.80;99.90;;;;;;4934815;29;20049;-70
2023/10/11 01:48:56;;;;;;;9.27;2.53;;;15.80;99.90;;;;;;4962101;28;20046;-69
2023/10/11 01:51:26;;;;;;;11.07;3.13;;;15.80;99.90;;;;;;4954034;29;20039;-69
2023/10/11 01:54:11;;;;;;;8.80;2.90;;;15.80;99.90;;;;;;4950863;28;20039;-70
2023/10/11 01:56:38;;;;;;;7.45;2.67;;;15.80;99.90;;;;;;4955103;28;20031;-70
2023/10/11 01:59:04;;;;;;;8.45;3.10;;;15.70;99.90;;;;;;4949945;29;20050;-70
2023/10/11 02:01:38;;;;;;;6.70;2.55;;;15.70;99.90;;;;;;4953637;29;20487;-70
2023/10/11 02:04:17;;;;;;;10.77;2.25;;;15.70;99.90;;;;;;4949925;28;20089;-70
2023/10/11 02:06:43;;;;;;;5.78;2.67;;;15.70;99.90;;;;;;4953387;28;20078;-70
2023/10/11 02:09:11;;;;;;;8.95;2.75;;;15.60;99.90;;;;;;4952381;29;20027;-70
2023/10/11 02:11:41;;;;;;;8.45;3.50;;;15.60;99.90;;;;;;4954357;28;20019;-70
2023/10/11 02:14:07;;;;;;;12.90;3.33;;;15.70;99.90;;;;;;4932198;29;20577;-70
2023/10/11 02:16:33;;;;;;;5.95;2.83;;;15.60;99.90;;;;;;4937372;29;20027;-70
2023/10/11 02:18:59;;;;;;;9.50;2.80;;;15.60;99.90;;;;;;4952117;29;20035;-70
2023/10/11 02:21:29;;;;;;;13.10;3.17;;;15.60;99.90;;;;;;4953130;28;20038;-70
2023/10/11 02:24:03;;;;;;;6.72;2.33;;;15.60;99.90;;;;;;4950422;28;20182;-69
2023/10/11 02:26:34;;;;;;;11.15;2.72;;;15.60;99.90;;;;;;4946271;29;20109;-70
2023/10/11 02:29:00;;;;;;;7.00;2.10;;;15.50;99.90;;;;;;4949386;29;20023;-70
2023/10/11 02:31:31;;;;;;;5.88;2.60;;;15.50;99.90;;;;;;4953292;29;20032;-70
2023/10/11 02:34:18;;;;;;;6.20;2.15;;;15.50;99.90;;;;;;4949365;29;20039;-70
2023/10/11 02:36:55;;;;;;;11.15;2.45;;;15.50;99.90;;;;;;4952344;29;20062;-70
2023/10/11 02:39:21;;;;;;;12.00;2.72;;;15.40;99.90;;;;;;4950138;28;20479;-70
2023/10/11 02:41:50;;;;;;;12.55;2.85;;;15.40;99.90;;;;;;4954042;29;20043;-70
2023/10/11 02:44:16;;;;;;;10.02;2.58;;;15.40;99.90;;;;;;4952288;28;20046;-70
2023/10/11 02:46:44;;;;;;;9.98;3.42;;;15.30;99.90;;;;;;4952655;28;20376;-70
2023/10/11 02:49:19;;;;;;;6.72;2.78;;;15.30;99.90;;;;;;4949850;29;20038;-70
2023/10/11 02:51:57;;;;;;;12.07;2.78;;;15.30;99.90;;;;;;4937789;29;20026;-70
2023/10/11 02:54:24;;;;;;;5.47;2.70;;;15.20;99.90;;;;;;4944735;28;20031;-70
2023/10/11 02:56:52;;;;;;;7.78;3.60;;;15.20;99.90;;;;;;4933103;29;20046;-71
2023/10/11 02:59:22;;;;;;;6.22;2.13;;;15.20;99.90;;;;;;4963921;28;20039;-70
2023/10/11 03:01:59;;;;;;;5.67;2.80;;;15.20;99.90;;;;;;4937083;29;20089;-70
2023/10/11 03:04:34;;;;;;;8.32;2.35;;;15.20;99.90;;;;;;4946412;29;20432;-70
2023/10/11 03:07:00;;;;;;;6.05;2.60;;;15.20;99.90;;;;;;4953688;29;20039;-70
2023/10/11 03:09:28;;;;;;;5.10;2.63;;;15.10;99.90;;;;;;4949518;28;20024;-70
2023/10/11 03:11:56;;;;;;;6.03;2.60;;;15.10;99.90;;;;;;4952258;28;20070;-70
2023/10/11 03:14:24;;;;;;;10.35;3.75;;;15.10;99.90;;;;;;4949701;28;20034;-70
2023/10/11 03:16:56;;;;;;;6.40;2.30;;;15.10;99.90;;;;;;4951862;28;20031;-71
2023/10/11 03:19:23;;;;;;;;;;;15.10;99.90;;;;;;4950627;29;20039;-70
2023/10/11 03:21:54;;;;;;;8.05;2.92;;;15.10;99.90;;;;;;4953957;28;20008;-70
2023/10/11 03:24:25;;;;;;;9.48;2.72;;;15.10;99.90;;;;;;4936826;29;20039;-69
2023/10/11 03:27:00;;;;;;;6.53;2.60;;;15.10;99.90;;;;;;4953850;28;20074;-72
2023/10/11 03:29:26;;;;;;;12.82;3.95;;;15.10;99.90;;;;;;4950008;28;20090;-71
2023/10/11 03:31:52;;;;;;;10.48;3.42;;;15.00;99.90;;;;;;4952784;29;20432;-71
2023/10/11 03:34:19;;;;;;;9.10;2.88;;;15.10;99.90;;;;;;4949506;29;20456;-71
2023/10/11 03:36:52;;;;;;;13.55;3.47;;;15.00;99.90;;;;;;4936375;28;20078;-70
2023/10/11 03:42:07;;;;;;;7.90;3.05;;;15.00;99.90;;;;;;4953410;28;20035;-71
2023/10/11 03:44:39;;;;;;;10.95;3.83;;;15.00;99.90;;;;;;4950009;28;20513;-71
2023/10/11 03:47:14;;;;;;;13.18;3.28;;;15.00;99.90;;;;;;4953318;28;20362;-71
2023/10/11 03:52:19;;;;;;;13.63;4.25;;;15.00;99.90;;;;;;4952328;29;20066;-70
2023/10/11 03:55:09;;;;;;;10.43;3.33;;;15.00;99.90;;;;;;4949620;28;20039;-70
2023/10/11 03:57:42;;;;;;;7.80;3.30;;;15.00;99.90;;;;;;4952183;29;20078;-70
2023/10/11 04:03:02;;;;;;;7.20;2.33;;;14.90;99.90;;;;;;4946344;28;20039;-71
2023/10/11 04:05:33;;;;;;;5.45;2.53;;;14.90;99.90;;;;;;4948421;28;20093;-70
2023/10/11 04:08:04;;;;;;;;;;;14.90;99.90;;;;;;4945561;28;20616;-70
2023/10/11 04:10:42;;;;;;;8.95;3.00;;;14.90;99.90;;;;;;4953647;29;19950;-71
2023/10/11 04:13:14;;;;;;;5.60;2.28;;;14.90;99.90;;;;;;4965589;28;20036;-71
2023/10/11 04:15:49;;;;;;;4.35;2.50;;;14.80;99.90;;;;;;4952978;28;20043;-70
2023/10/11 04:18:28;;;;;;;10.85;2.92;;;14.90;99.90;;;;;;4951301;29;20058;-70
2023/10/11 04:21:15;;;;;;;6.03;2.78;;;14.80;99.90;;;;;;4950511;28;20034;-70
2023/10/11 04:23:45;;;;;;;6.07;2.15;;;14.80;99.90;;;;;;4963260;28;20031;-71
2023/10/11 04:28:57;;;;;;;8.55;3.47;;;14.70;99.90;;;;;;4956600;28;20024;-71
2023/10/11 04:31:36;;;;;;;8.10;3.17;;;14.70;99.90;;;;;;4947246;29;20094;-70
2023/10/11 04:34:48;;;;;;;8.43;2.65;;;14.70;99.90;;;;;;4954769;29;20094;-70
2023/10/11 04:36:55;;;;;;;8.10;2.83;;;14.60;99.90;;;;;;4944212;28;20507;-70
2023/10/11 04:39:33;;;;;;;6.80;2.42;;;14.70;99.90;;;;;;4954513;29;20515;-70
2023/10/11 04:42:00;;;;;;;6.90;2.55;;;14.70;99.90;;;;;;4948344;29;20035;-70
2023/10/11 04:44:42;;;;;;;6.45;2.90;;;14.60;99.90;;;;;;4955450;28;20063;-71
2023/10/11 04:47:11;;;;;;;8.45;3.15;;;14.50;99.90;;;;;;4932184;28;20115;-71
2023/10/11 04:49:37;;;;;;;15.43;5.82;;;14.50;99.90;;;;;;4955037;29;20066;-71
2023/10/11 04:52:13;;;;;;;13.88;2.67;;;14.50;99.90;;;;;;4947963;29;20114;-72
2023/10/11 04:54:53;;;;;;;5.85;2.75;;;14.50;99.90;;;;;;4954916;29;20031;-71
2023/10/11 04:57:23;;;;;;;9.93;2.75;;;14.50;99.90;;;;;;4948373;28;20038;-71
2023/10/11 04:59:59;;;;;;;11.40;3.35;;;14.50;99.90;;;;;;4955792;29;20035;-70
2023/10/11 05:02:32;;;;;;;9.45;2.83;;;14.40;99.90;;;;;;4947322;29;20170;-70
2023/10/11 05:04:59;;;;;;;14.95;2.70;;;14.40;99.90;;;;;;4955332;28;20031;-71
2023/10/11 05:07:28;;;;;;;9.02;2.90;;;14.30;99.90;;;;;;4953549;28;20023;-70
2023/10/11 05:10:43;;;;;;;8.63;3.70;;;14.30;99.90;;;;;;4938681;29;20043;-70
2023/10/11 05:13:15;;;;;;;10.27;2.22;;;14.20;99.90;;;;;;4953034;29;20547;-70
2023/10/11 05:15:47;;;;;;;11.57;2.67;;;14.20;99.90;;;;;;4951837;28;20059;-70
2023/10/11 05:18:42;;;;;;;18.58;3.15;;;14.20;99.90;;;;;;4952991;28;20555;-71
2023/10/11 05:30:29;;;;;;;9.85;2.65;;;14.10;99.90;;;;;;4945336;29;20047;-71
2023/10/11 05:52:42;;;;;;;9.93;2.58;;;14.20;99.90;;;;;;4949693;28;20050;-71
2023/10/11 05:58:43;;;;;;;4.63;2.40;;;14.20;99.90;;;;;;4946252;29;20047;-70
2023/10/11 06:01:23;;;;;;;15.02;3.97;;;14.20;99.90;;;;;;4947221;28;20035;-69
2023/10/11 06:04:03;;;;;;;10.57;3.65;;;14.30;99.90;;;;;;4954971;28;20039;-68
2023/10/11 06:06:38;;;;;;;7.57;2.72;;;14.30;99.90;;;;;;4947945;29;20079;-68
2023/10/11 06:09:16;;;;;;;11.38;2.58;;;14.30;99.90;;;;;;4955026;28;20047;-77
2023/10/11 06:11:48;;;;;;;5.82;2.63;;;14.30;99.90;;;;;;4951341;29;20112;-76
2023/10/11 06:14:36;;;;;;;5.03;2.53;;;14.30;99.90;;;;;;4955528;28;20027;-76
2023/10/11 06:17:05;;;;;;;7.32;2.92;;;14.30;99.90;;;;;;4958969;28;20030;-77
2023/10/11 06:19:43;;;;;;;8.88;3.05;;;14.40;99.90;;;;;;4934737;29;20044;-76
2023/10/11 06:32:11;;;;;;;8.82;3.40;;;14.50;99.90;;;;;;4983660;28;20042;-75
2023/10/11 06:34:37;;;;;;;8.25;3.25;;;14.60;99.90;;;;;;5007789;28;20497;-75
2023/10/11 06:37:06;;;;;;;5.68;2.17;;;14.60;99.90;;;;;;5034089;28;20037;-74
2023/10/11 06:44:59;;;;;;;7.50;3.17;;;14.70;99.90;;;;;;4934463;28;20513;-75
2023/10/11 06:47:27;;;;;;;9.13;3.03;;;14.70;99.90;;;;;;4846317;29;20102;-74
2023/10/11 06:49:55;;;;;;;8.63;2.35;;;14.80;99.90;;;;;;4813368;29;20131;-73
2023/10/11 06:52:26;;;;;;;6.18;2.88;;;14.80;99.90;;;;;;4758413;29;20045;-71
2023/10/11 06:55:13;;;;;;;6.40;2.53;;;14.90;99.90;;;;;;4759966;30;20059;-72
2023/10/11 06:57:41;;;;;;;10.52;2.60;;;14.90;99.90;;;;;;4733583;30;20032;-73
2023/10/11 07:00:20;;;;;;;10.07;2.53;;;15.00;99.90;;;;;;4731084;30;20040;-73
2023/10/11 07:03:21;;;;;;;3.53;1.58;;;15.00;99.90;;;;;;4759280;30;20842;-72
2023/10/11 07:05:59;;;;;;;8.68;2.50;;;15.10;99.90;;;;;;4754807;30;20147;-73
2023/10/11 07:08:31;;;;;;;6.85;2.50;;;15.20;99.90;;;;;;4754167;30;20041;-73
2023/10/11 07:11:03;;;;;;;5.28;2.10;;;15.20;99.90;;;;;;4759488;30;20389;-72
2023/10/11 07:16:31;;;;;;;6.53;2.45;;;15.40;99.90;;;;;;4752749;30;20075;-72
2023/10/11 07:18:58;;;;;;;13.60;2.92;;;15.50;99.90;;;;;;4760355;30;20051;-72
2023/10/11 07:26:56;;;;;;;24.55;3.33;;;15.70;99.90;;;;;;4729706;30;20064;-74
2023/10/11 07:29:22;;;;;;;7.85;2.53;;;15.70;99.90;;;;;;4734592;30;20482;-73
2023/10/11 07:31:48;;;;;;;4.20;1.75;;;15.70;99.90;;;;;;4746682;30;20409;-73
2023/10/11 07:34:22;;;;;;;7.95;2.25;;;15.80;99.90;;;;;;4761668;30;20040;-72
2023/10/11 07:36:49;;;;;;;8.57;2.40;;;15.90;99.90;;;;;;4732607;30;20067;-73
2023/10/11 07:41:52;;;;;;;9.60;3.00;;;16.10;99.90;;;;;;4738322;30;20036;-72
2023/10/11 07:44:18;;;;;;;6.38;2.05;;;16.20;99.90;;;;;;4764505;29;20044;-72
2023/10/11 07:46:48;;;;;;;13.15;3.08;;;16.30;99.90;;;;;;4735585;30;20067;-72
2023/10/11 07:49:16;;;;;;;5.88;2.22;;;16.30;99.90;;;;;;4819006;29;20034;-69
2023/10/11 07:51:42;;;;;;;3.85;1.77;;;16.40;99.90;;;;;;4901560;29;20043;-69
2023/10/11 07:54:19;;;;;;;7.10;3.25;;;16.60;99.90;;;;;;4897760;29;20037;-74
2023/10/11 07:56:56;;;;;;;7.00;2.08;;;16.60;99.90;;;;;;4898143;29;20412;-69
2023/10/11 07:59:26;;;;;;;6.70;2.55;;;16.70;99.90;;;;;;4898585;29;20086;-71
2023/10/11 08:01:59;;;;;;;10.30;2.20;;;16.80;99.90;;;;;;4899566;29;20334;-72
2023/10/11 08:04:29;;;;;;;5.45;2.25;;;16.90;99.90;;;;;;4898175;29;20572;-72
2023/10/11 08:06:59;;;;;;;8.40;2.45;;;17.00;99.90;;;;;;4925465;29;20385;-72
2023/10/11 08:09:45;;;;;;;8.30;2.35;;;17.10;99.90;;;;;;4898117;29;20063;-72
2023/10/11 08:12:19;;;;;;;7.43;2.78;;;17.20;99.90;;;;;;4897001;29;20036;-72
2023/10/11 08:14:45;;;;;;;8.15;2.38;;;17.30;99.90;;;;;;4895077;29;20405;-72
2023/10/11 08:17:16;;;;;;;4.88;2.58;;;17.40;99.90;;;;;;4897714;29;20025;-70
2023/10/11 08:19:46;;;;;;;4.47;2.22;;;17.50;99.90;;;;;;4894590;29;20041;-69
2023/10/11 08:22:16;;;;;;;9.48;2.58;;;17.50;99.90;;;;;;4896710;29;20124;-70
2023/10/11 08:24:50;;;;;;;7.40;2.65;;;17.50;99.90;;;;;;4896851;29;20389;-69
2023/10/11 08:27:27;;;;;;;9.90;2.75;;;17.70;99.90;;;;;;4898702;29;20027;-68
2023/10/11 08:30:05;;;;;;;9.50;2.75;;;17.80;99.90;;;;;;4911508;29;20056;-71
2023/10/11 08:32:33;;;;;;;7.15;2.42;;;17.80;99.90;;;;;;4889788;29;20116;-68
2023/10/11 08:34:59;;;;;;;9.52;2.63;;;17.90;99.90;;;;;;4919897;29;20039;-70
2023/10/11 08:37:25;;;;;;;6.93;1.90;;;18.00;99.90;;;;;;4905784;29;20036;-73
2023/10/11 08:39:54;;;;;;;5.95;2.45;;;18.10;99.90;;;;;;4909110;29;20480;-56
2023/10/11 08:42:22;;;;;;;5.05;2.17;;;18.20;99.90;;;;;;4893952;29;20037;-72
2023/10/11 08:44:49;;;;;;;10.10;3.42;;;18.30;99.90;;;;;;4899904;29;20520;-73
2023/10/11 08:47:19;;;;;;;7.63;2.92;;;18.40;99.90;;;;;;4921827;28;20096;-72
2023/10/11 08:49:48;;;;;;;7.68;2.42;;;18.50;99.90;;;;;;4956823;28;20146;-72
2023/10/11 08:52:30;;;;;;;8.80;2.88;;;18.50;99.90;;;;;;4960352;28;20018;-72
2023/10/11 08:54:59;;;;;;;11.73;2.40;;;18.70;99.90;;;;;;4972032;28;20117;-72
2023/10/11 08:57:26;;;;;;;8.07;2.50;;;18.80;99.90;;;;;;4973888;28;20073;-72
2023/10/11 08:59:56;;;;;;;7.53;2.08;;;18.90;99.90;;;;;;4975372;28;20038;-71
2023/10/11 09:02:27;;;;;;;13.70;2.50;;;19.00;99.90;;;;;;4973315;28;20033;-71
2023/10/11 09:05:06;;;;;;;14.57;2.60;;;19.10;99.90;;;;;;4972819;28;20038;-73
2023/10/11 09:07:46;;;;;;;6.28;2.00;;;19.30;99.90;;;;;;4973518;28;20019;-72
2023/10/11 09:10:27;;;;;;;6.68;2.33;;;19.40;99.90;;;;;;4957017;28;20081;-73
2023/10/11 09:12:57;;;;;;;7.75;3.08;;;19.50;99.90;;;;;;4983690;28;20444;-73
2023/10/11 09:15:42;;;;;;;8.95;2.58;;;19.80;99.90;;;;;;4973025;28;20034;-73
2023/10/11 09:18:17;;;;;;;6.57;2.45;;;19.90;99.90;;;;;;4978581;28;20034;-73
2023/10/11 09:21:08;;;;;;;9.75;3.10;;;20.00;99.90;;;;;;4965879;28;20027;-73
2023/10/11 09:23:38;;;;;;;;;;;20.30;99.90;;;;;;4974824;28;20039;-73
2023/10/11 09:26:05;;;;;;;10.32;3.45;;;20.40;99.90;;;;;;4962846;28;19914;-72
2023/10/11 09:28:40;;;;;;;7.03;2.08;;;20.30;99.90;;;;;;4980182;28;20046;-73
2023/10/11 09:31:10;;;;;;;4.30;2.25;;;20.60;99.90;;;;;;4964418;28;20038;-72
2023/10/11 09:33:40;;;;;;;7.00;2.83;;;20.70;99.90;;;;;;4986149;28;20042;-74
2023/10/11 09:36:08;;;;;;;12.63;2.53;;;21.00;99.90;;;;;;4964884;28;20061;-73
2023/10/11 09:38:41;;;;;;;11.52;2.92;;;21.10;99.90;;;;;;4979639;28;20045;-73
2023/10/11 09:41:08;;;;;;;8.32;2.28;;;21.30;99.90;;;;;;4963388;28;20038;-72
2023/10/11 09:43:44;;;;;;;6.22;2.08;;;21.50;99.90;;;;;;4982136;28;20538;-72
2023/10/11 09:46:13;;;;;;;5.60;2.15;;;21.60;99.90;;;;;;4958974;28;20064;-73
2023/10/11 09:48:43;;;;;;;4.63;2.22;;;21.70;99.90;;;;;;4960840;28;20027;-73
2023/10/11 09:51:14;;;;;;;7.43;2.00;;;21.90;99.90;;;;;;4969022;28;20042;-73
2023/10/11 09:53:42;;;;;;;5.40;1.58;;;22.20;99.90;;;;;;4962537;28;20039;-72
2023/10/11 09:56:35;;;;;;;10.00;2.22;;;22.30;99.90;;;;;;4957359;28;20114;-71
2023/10/11 09:59:25;;;;;;;3.88;1.60;;;22.40;99.90;;;;;;4965640;28;20065;-70
2023/10/11 10:02:12;;;;;;;4.20;1.70;;;22.50;99.90;;;;;;4959755;28;20436;-70
2023/10/11 10:04:51;;;;;;;12.00;2.00;;;22.70;99.40;;;;;;4952228;28;20039;-70
2023/10/11 10:07:21;;;;;;;12.07;2.53;;;22.90;99.00;;;;;;4956269;28;20542;-71
2023/10/11 10:09:59;;;;;;;4.82;1.83;;;23.00;99.00;;;;;;4966657;28;20031;-71
2023/10/11 10:12:40;;;;;;;9.85;2.38;;;23.20;98.40;;;;;;4969540;28;20027;-72
2023/10/11 10:15:13;;;;;;;3.83;1.77;;;23.40;98.10;;;;;;4932508;28;20399;-74
2023/10/11 10:18:05;;;;;;;6.57;2.67;;;23.40;97.90;;;;;;4957074;28;20038;-73
2023/10/11 10:20:33;;;;;;;5.80;2.05;;;23.60;97.80;;;;;;4960203;28;20039;-74
2023/10/11 10:23:27;;;;;;;10.13;3.80;;;24.00;97.10;;;;;;4960311;28;20038;-73
2023/10/11 10:26:10;;;;;;;7.88;2.05;;;24.10;96.90;;;;;;4962424;28;20411;-73
2023/10/11 10:28:36;;;;;;;8.18;2.13;;;24.40;96.60;;;;;;4965466;28;20403;-73
2023/10/11 10:31:20;;;;;;;7.35;2.30;;;24.60;96.70;;;;;;4955889;28;20027;-73
2023/10/11 10:34:13;;;;;;;6.63;2.80;;;24.40;96.00;;;;;;4963514;28;20042;-73
2023/10/11 10:36:40;;;;;;;5.28;2.25;;;24.70;96.10;;;;;;4957141;28;20027;-74
2023/10/11 10:41:40;;;;;;;6.80;1.88;;;25.10;95.30;;;;;;4961210;28;20113;-73
2023/10/11 10:44:14;;;;;;;6.75;1.42;;;25.10;95.10;;;;;;4957771;28;20055;-73
2023/10/11 10:46:49;;;;;;;6.68;1.95;;;25.30;94.90;;;;;;4957280;28;20028;-73
2023/10/11 10:49:19;;;;;;;7.32;2.53;;;25.50;94.50;;;;;;4933152;28;20032;-75
2023/10/11 10:51:48;;;;;;;7.53;1.92;;;25.70;94.10;;;;;;4951668;28;20126;-73
2023/10/11 10:54:22;;;;;;;7.38;2.05;;;26.20;93.60;;;;;;4943019;28;20449;-73
2023/10/11 10:56:53;;;;;;;8.25;1.83;;;26.30;93.00;;;;;;4937122;28;20067;-74
2023/10/11 10:59:25;;;;;;;4.70;1.92;;;27.20;92.50;;;;;;4941861;28;20079;-74
2023/10/11 11:01:52;;;;;;;8.93;2.55;;;27.40;92.30;;;;;;4936092;28;20070;-73
2023/10/11 11:04:27;;;;;;;5.95;2.05;;;27.20;91.80;;;;;;4942662;28;20031;-74
2023/10/11 11:06:53;;;;;;;7.30;1.98;;;29.10;90.40;;;;;;4949218;28;20058;-74
2023/10/11 11:09:25;;;;;;;7.85;3.00;;;29.90;87.60;;;;;;4950680;28;20076;-73
2023/10/11 11:11:54;;;;;;;17.00;2.78;;;28.00;90.00;;;;;;4928351;28;20042;-73
2023/10/11 11:14:23;;;;;;;7.10;1.83;;;29.50;87.90;;;;;;4949956;28;20035;-74
2023/10/11 11:17:08;;;;;;;10.15;1.50;;;29.50;86.40;;;;;;4943651;28;20043;-73
2023/10/11 11:19:34;;;;;;;3.38;1.38;;;31.10;81.50;;;;;;4939089;29;20100;-73
2023/10/11 11:22:12;;;;;;;9.07;2.15;;;31.10;78.20;;;;;;4948159;28;20060;-73
2023/10/11 11:24:41;;;;;;;6.18;1.67;;;29.80;80.40;;;;;;4963358;28;20034;-76
2023/10/11 11:27:27;;;;;;;10.90;2.30;;;31.50;77.90;;;;;;4949907;28;20466;-75
2023/10/11 11:30:04;;;;;;;10.68;1.73;;;31.60;75.70;;;;;;4960580;28;20035;-74
2023/10/11 11:32:41;;;;;;;12.05;1.63;;;33.00;74.60;;;;;;4942016;28;20032;-73
2023/10/11 11:35:28;;;;;;;6.82;1.67;;;31.30;73.90;;;;;;4942887;28;20027;-72
2023/10/11 11:38:02;;;;;;;9.95;1.95;;;32.60;73.70;;;;;;4944911;28;20509;-76
2023/10/11 11:40:46;;;;;;;4.43;1.80;;;31.80;73.50;;;;;;4941228;28;20059;-78
2023/10/11 11:43:17;;;;;;;10.45;2.05;;;32.80;71.20;;;;;;4949084;28;20023;-77
2023/10/11 11:45:45;;;;;;;9.32;1.95;;;32.00;72.30;;;;;;4962519;28;20729;-76
2023/10/11 11:48:11;;;;;;;5.07;1.10;;;30.90;73.60;;;;;;4938401;28;20146;-77
2023/10/11 11:50:38;;;;;;;3.88;1.85;;;31.60;72.40;;;;;;4957707;28;20027;-77
2023/10/11 11:53:06;;;;;;;5.30;2.05;;;31.70;72.90;;;;;;4947169;28;20082;-77
2023/10/11 11:55:34;;;;;;;3.67;1.10;;;32.10;72.70;;;;;;4958419;28;20039;-77
2023/10/11 11:58:10;;;;;;;14.20;1.83;;;32.00;70.20;;;;;;4947061;28;20023;-78
2023/10/11 12:00:39;;;;;;;8.93;2.72;;;31.40;72.90;;;;;;4949157;28;20031;-79
2023/10/11 12:03:08;;;;;;;5.57;1.65;;;31.10;71.70;;;;;;4967803;28;20506;-78
2023/10/11 12:05:40;;;;;;;7.00;1.83;;;31.70;73.20;;;;;;4961975;28;20109;-78
2023/10/11 12:08:21;;;;;;;5.45;1.15;;;32.30;72.00;;;;;;4947222;28;20031;-76
2023/10/11 12:10:50;;;;;;;6.35;1.02;;;32.60;69.80;;;;;;4948350;28;20426;-71
2023/10/11 12:13:23;;;;;;;4.60;1.77;;;32.60;69.10;;;;;;4937857;28;20094;-77
2023/10/11 12:15:54;;;;;;;4.85;1.55;;;31.90;69.30;;;;;;4945480;28;20043;-68
2023/10/11 12:18:34;;;;;;;4.22;1.60;;;32.30;69.00;;;;;;4947759;28;20058;-72
2023/10/11 12:21:10;;;;;;;6.10;1.60;;;32.90;68.40;;;;;;4945643;28;20099;-71
2023/10/11 12:23:46;;;;;;;7.60;1.50;;;31.20;69.80;;;;;;4943696;28;20027;-71
2023/10/11 12:26:13;;;;;;;9.85;1.90;;;30.80;70.80;;;;;;4944473;28;20023;-71
2023/10/11 12:28:39;;;;;;;13.65;2.17;;;31.70;71.20;;;;;;4948530;28;20036;-71
2023/10/11 12:31:05;;;;;;;13.40;2.08;;;31.00;70.10;;;;;;4944318;28;20032;-71
2023/10/11 12:33:32;;;;;;;8.50;1.73;;;30.70;71.70;;;;;;4938926;28;20118;-73
2023/10/11 12:35:58;;;;;;;4.60;1.60;;;31.00;71.20;;;;;;4940501;28;20114;-73
2023/10/11 12:38:23;;;;;;;8.68;1.60;;;32.10;70.20;;;;;;4940045;28;20118;-76
2023/10/11 12:40:49;;;;;;;5.95;1.92;;;31.60;69.20;;;;;;4943909;28;20051;-55
2023/10/11 12:43:15;;;;;;;9.10;1.67;;;30.40;70.60;;;;;;4941646;28;20035;-59
2023/10/11 12:45:42;;;;;;;5.78;1.63;;;30.70;72.10;;;;;;4944791;28;20039;-60
2023/10/11 12:48:10;;;;;;;8.15;1.33;;;30.90;70.60;;;;;;4939596;28;20057;-62
2023/10/11 12:50:38;;;;;;;6.72;1.55;;;30.70;71.20;;;;;;4939794;28;20042;-63
2023/10/11 12:53:11;;;;;;;8.50;1.88;;;31.50;69.20;;;;;;4940059;28;20500;-63
2023/10/11 12:55:43;;;;;;;10.63;1.52;;;31.40;69.50;;;;;;4951790;28;20403;-65
2023/10/11 12:58:13;;;;;;;8.25;1.50;;;31.80;69.60;;;;;;4940187;28;20587;-61
2023/10/11 13:00:48;;;;;;;3.10;1.15;;;31.40;69.20;;;;;;4943729;28;20471;-66
2023/10/11 13:03:29;;;;;;;5.07;1.70;;;31.80;69.70;;;;;;4941052;28;20119;-63
2023/10/11 13:05:56;;;;;;;6.43;1.38;;;31.40;69.70;;;;;;4944632;28;20659;-63
2023/10/11 13:08:26;;;;;;;4.65;1.40;;;31.50;69.60;;;;;;4948446;28;20110;-65
2023/10/11 13:10:53;;;;;;;16.80;1.85;;;31.70;68.70;;;;;;4956313;28;20029;-65
2023/10/11 13:13:23;;;;;;;8.13;2.45;;;32.00;67.10;;;;;;4960198;28;20082;-64
2023/10/11 13:15:58;;;;;;;10.68;1.75;;;31.40;67.90;;;;;;4941640;28;20031;-65
2023/10/11 13:18:38;;;;;;;4.45;1.20;;;31.30;67.70;;;;;;4945989;28;20047;-66
2023/10/11 13:21:10;;;;;;;9.40;1.55;;;30.80;68.30;;;;;;4936898;28;20533;-67
2023/10/11 13:23:37;;;;;;;6.13;1.67;;;31.10;66.80;;;;;;4943246;28;20040;-66
2023/10/11 13:26:08;;;;;;;3.38;1.20;;;31.40;65.10;;;;;;4941803;28;20020;-59
2023/10/11 13:28:40;;;;;;;4.75;2.17;;;31.00;61.80;;;;;;4946475;28;20048;-56
2023/10/11 13:31:09;;;;;;;4.68;1.20;;;30.60;62.00;;;;;;4940742;28;20024;-65
2023/10/11 13:33:36;;;;;;;5.85;0.90;;;31.20;61.80;;;;;;4943240;28;20032;-63
2023/10/11 13:36:07;;;;;;;4.60;1.05;;;30.70;61.40;;;;;;4944508;28;20047;-66
2023/10/11 13:38:34;;;;;;;5.72;1.20;;;30.50;62.20;;;;;;4949042;28;20036;-63
2023/10/11 13:41:00;;;;;;;7.30;1.45;;;30.90;61.20;;;;;;4949654;28;20035;-62
2023/10/11 13:43:26;;;;;;;5.43;1.60;;;31.20;61.00;;;;;;4942905;28;20034;-62
2023/10/11 13:45:56;;;;;;;3.13;1.00;;;31.60;59.80;;;;;;4940377;28;20051;-60
2023/10/11 13:48:39;;;;;;;4.50;1.63;;;30.70;60.40;;;;;;4946889;28;20032;-63
2023/10/11 13:51:07;;;;;;;6.70;2.25;;;30.60;61.20;;;;;;4940275;28;20040;-63
2023/10/11 13:53:41;;;;;;;4.65;1.67;;;30.80;61.90;;;;;;4946298;28;20484;-64
2023/10/11 13:56:20;;;;;;;7.70;1.30;;;30.20;60.80;;;;;;4939423;28;20035;-62
2023/10/11 13:58:47;;;;;;;6.68;1.42;;;30.70;61.10;;;;;;4940351;28;20502;-62
2023/10/11 14:04:05;;;;;;;3.90;1.73;;;31.30;58.70;;;;;;4941914;28;20669;-64
2023/10/11 14:06:41;;;;;;;5.93;1.13;;;31.20;58.70;;;;;;4938179;28;20365;-63
2023/10/11 14:09:16;;;;;;;3.60;1.30;;;31.90;56.40;;;;;;4943869;28;20431;-64
2023/10/11 14:11:50;;;;;;;8.20;1.33;;;31.70;56.50;;;;;;4937272;28;20100;-63
2023/10/11 14:14:20;;;;;;;5.97;1.40;;;30.90;57.40;;;;;;4951505;28;20114;-64
2023/10/11 14:16:49;;;;;;;8.68;3.15;;;30.60;58.90;;;;;;4936689;28;20027;-64
2023/10/11 14:19:16;;;;;;;7.17;1.10;;;30.70;58.40;;;;;;4944383;28;20074;-64
2023/10/11 14:21:47;;;;;;;6.18;1.52;;;30.70;57.00;;;;;;4961627;28;20434;-60
2023/10/11 14:24:15;;;;;;;6.43;1.40;;;30.90;56.50;;;;;;4943077;28;20024;-61
2023/10/11 14:26:41;;;;;;;4.72;1.40;;;30.50;55.80;;;;;;4952710;28;20028;-61